createdAt,value
2019-05-16T02:35:40.612Z,7.30
2019-05-16T02:38:11.185Z,8.05
2019-05-16T02:40:41.515Z,6.62
2019-05-16T02:43:08.185Z,8.65
2019-05-16T02:45:35.706Z,7.65
2019-05-16T02:48:03.118Z,7.60
2019-05-16T02:50:31.890Z,11.50
2019-05-16T02:53:01.533Z,9.28
2019-05-16T02:55:30.796Z,10.00
2019-05-16T02:58:00.771Z,10.05
2019-05-16T03:00:33.895Z,7.17
2019-05-16T03:03:02.061Z,9.40
2019-05-16T03:05:30.590Z,7.42
2019-05-16T03:08:01.249Z,8.50
2019-05-16T03:10:31.046Z,6.03
2019-05-16T03:13:00.866Z,7.58
2019-05-16T03:15:31.050Z,9.15
2019-05-16T03:18:00.285Z,6.42
2019-05-16T03:20:31.519Z,10.50
2019-05-16T03:23:01.942Z,10.20
2019-05-16T03:25:31.014Z,10.18
2019-05-16T03:28:01.634Z,6.67
2019-05-16T03:30:34.200Z,7.20
2019-05-16T03:32:57.285Z,5.62
2019-05-16T03:35:25.465Z,8.30
2019-05-16T03:37:59.656Z,6.42
2019-05-16T03:40:26.830Z,8.15
2019-05-16T03:42:54.213Z,6.20
2019-05-16T03:45:21.551Z,6.10
2019-05-16T03:47:51.063Z,6.67
2019-05-16T03:50:21.562Z,8.03
2019-05-16T03:52:50.561Z,7.70
2019-05-16T03:55:16.577Z,7.97
2019-05-16T03:57:44.115Z,6.45
2019-05-16T04:00:12.404Z,7.25
2019-05-16T04:02:44.928Z,7.03
2019-05-16T04:05:11.139Z,5.92
2019-05-16T04:07:41.373Z,7.58
2019-05-16T04:10:10.936Z,5.45
2019-05-16T04:12:41.480Z,5.70
2019-05-16T04:15:11.403Z,6.12
2019-05-16T04:17:41.107Z,5.90
2019-05-16T04:20:11.227Z,5.37
2019-05-16T04:22:36.804Z,6.83
2019-05-16T04:25:05.532Z,11.08
2019-05-16T04:27:32.853Z,9.43
2019-05-16T04:30:01.664Z,6.37
2019-05-16T04:32:31.418Z,7.17
2019-05-16T04:35:02.695Z,4.67
2019-05-16T04:37:31.379Z,6.97
2019-05-16T04:40:01.196Z,8.35
2019-05-16T04:42:31.013Z,4.92
2019-05-16T04:45:01.243Z,4.30
2019-05-16T04:47:31.444Z,5.40
2019-05-16T04:50:00.977Z,8.48
2019-05-16T04:52:27.164Z,6.70
2019-05-16T04:54:54.446Z,4.37
2019-05-16T04:57:22.443Z,7.08
2019-05-16T04:59:50.854Z,6.00
2019-05-16T05:02:21.230Z,4.83
2019-05-16T05:04:50.713Z,8.18
2019-05-16T05:07:16.900Z,7.78
2019-05-16T05:09:44.392Z,5.05
2019-05-16T05:12:11.748Z,5.35
2019-05-16T05:14:41.598Z,6.95
2019-05-16T05:17:10.797Z,6.92
2019-05-16T05:19:41.285Z,5.40
2019-05-16T05:22:07.488Z,5.75
2019-05-16T05:24:34.775Z,5.55
2019-05-16T05:27:02.085Z,5.60
2019-05-16T05:29:30.693Z,7.03
2019-05-16T05:32:03.597Z,6.72
2019-05-16T05:34:30.100Z,5.05
2019-05-16T05:36:57.255Z,5.40
2019-05-16T05:39:24.773Z,6.45
2019-05-16T05:41:52.252Z,6.80
2019-05-16T05:44:20.336Z,5.03
2019-05-16T05:46:47.922Z,7.03
2019-05-16T05:49:15.566Z,5.37
2019-05-16T05:51:43.997Z,9.90
2019-05-16T05:54:11.579Z,5.65
2019-05-16T05:56:39.825Z,5.78
2019-05-16T05:59:07.379Z,8.00
2019-05-16T06:01:34.669Z,4.62
2019-05-16T06:04:02.072Z,4.40
2019-05-16T06:06:30.398Z,5.65
2019-05-16T06:09:00.591Z,6.58
2019-05-16T06:11:27.485Z,5.33
2019-05-16T06:13:55.447Z,6.12
2019-05-16T06:16:22.720Z,5.22
2019-05-16T06:18:50.438Z,4.92
2019-05-16T06:21:20.079Z,6.03
2019-05-16T06:23:47.480Z,6.72
2019-05-16T06:26:16.651Z,9.50
2019-05-16T06:28:44.003Z,6.12
2019-05-16T06:31:14.038Z,5.15
2019-05-16T06:33:41.446Z,4.65
2019-05-16T06:36:11.035Z,9.03
2019-05-16T06:38:40.530Z,6.33
2019-05-16T06:41:10.105Z,6.12
2019-05-16T06:43:39.875Z,9.73
2019-05-16T06:46:06.861Z,4.78
2019-05-16T06:48:34.146Z,8.30
2019-05-16T06:51:03.174Z,4.85
2019-05-16T06:53:30.873Z,6.85
2019-05-16T06:56:00.077Z,4.03
2019-05-16T06:58:29.985Z,4.62
2019-05-16T07:00:59.525Z,6.00
2019-05-16T07:03:26.591Z,4.22
2019-05-16T07:05:53.908Z,3.22
2019-05-16T07:08:21.483Z,5.70
2019-05-16T07:10:50.991Z,4.10
2019-05-16T07:13:19.673Z,4.72
2019-05-16T07:15:47.012Z,7.12
2019-05-16T07:18:14.329Z,4.45
2019-05-16T07:20:42.087Z,6.20
2019-05-16T07:23:10.645Z,4.28
2019-05-16T07:25:40.634Z,5.37
2019-05-16T07:28:10.090Z,3.67
2019-05-16T07:30:37.305Z,4.30
2019-05-16T07:33:05.065Z,4.42
2019-05-16T07:35:32.313Z,3.98
2019-05-16T07:38:01.056Z,2.00
2019-05-16T07:40:30.849Z,4.37
2019-05-16T07:43:00.066Z,2.20
2019-05-16T07:45:27.544Z,2.20
2019-05-16T07:47:54.987Z,3.52
2019-05-16T07:50:22.696Z,3.25
2019-05-16T07:52:51.166Z,4.30
2019-05-16T07:55:20.947Z,3.77
2019-05-16T07:57:50.696Z,4.55
2019-05-16T08:00:21.264Z,6.12
2019-05-16T08:02:47.597Z,6.42
2019-05-16T08:05:14.917Z,3.52
2019-05-16T08:07:42.219Z,3.85
2019-05-16T08:10:10.557Z,4.85
2019-05-16T08:12:40.641Z,3.15
2019-05-16T08:15:10.201Z,6.30
2019-05-16T08:17:41.424Z,5.15
2019-05-16T08:20:10.618Z,6.80
2019-05-16T08:22:37.138Z,4.58
2019-05-16T08:25:04.795Z,4.80
2019-05-16T08:27:31.969Z,4.42
2019-05-16T08:32:31.235Z,6.22
2019-05-16T08:35:00.829Z,5.03
2019-05-16T08:37:42.612Z,4.50
2019-05-16T08:39:56.391Z,7.65
2019-05-16T08:42:23.705Z,4.67
2019-05-16T08:44:52.855Z,5.40
2019-05-16T08:47:21.325Z,4.58
2019-05-16T08:49:52.167Z,4.37
2019-05-16T08:52:22.424Z,5.75
2019-05-16T08:54:47.506Z,4.95
2019-05-16T08:57:27.159Z,5.20
2019-05-16T08:59:46.519Z,6.60
2019-05-16T09:02:13.935Z,5.70
2019-05-16T09:04:44.136Z,5.75
2019-05-16T09:07:12.650Z,7.55
2019-05-16T09:09:48.454Z,8.20
2019-05-16T09:12:10.095Z,5.20
2019-05-16T09:14:39.078Z,5.35
2019-05-16T09:17:07.557Z,5.37
2019-05-16T09:18:30.370Z,4.47
2019-05-16T09:19:36.942Z,5.42
2019-05-16T09:22:07.153Z,5.85
2019-05-16T09:24:33.711Z,5.37
2019-05-16T09:27:01.364Z,5.05
2019-05-16T09:29:28.916Z,6.37
2019-05-16T09:32:09.130Z,5.22
2019-05-16T09:34:28.298Z,5.75
2019-05-16T09:37:00.146Z,4.80
2019-05-16T09:39:24.734Z,5.72
2019-05-16T09:41:55.547Z,3.67
2019-05-16T09:44:21.391Z,6.00
2019-05-16T09:46:48.612Z,4.95
2019-05-16T09:49:23.926Z,5.15
2019-05-16T09:51:46.644Z,5.62
2019-05-16T09:54:16.776Z,4.87
2019-05-16T09:56:46.423Z,4.67
2019-05-16T09:59:14.420Z,4.05
2019-05-16T10:01:42.350Z,5.92
2019-05-16T10:04:09.903Z,6.80
2019-05-16T10:06:37.587Z,5.33
2019-05-16T10:09:06.617Z,5.47
2019-05-16T10:11:34.442Z,4.42
2019-05-16T10:14:02.573Z,6.22
2019-05-16T10:16:29.761Z,4.53
2019-05-16T10:18:57.370Z,4.33
2019-05-16T10:21:26.976Z,5.97
2019-05-16T10:23:56.349Z,5.00
2019-05-16T10:26:23.504Z,5.47
2019-05-16T10:28:50.946Z,4.03
2019-05-16T10:31:18.584Z,4.70
2019-05-16T10:33:47.721Z,5.20
2019-05-16T10:36:17.334Z,6.80
2019-05-16T10:38:48.147Z,6.10
2019-05-16T10:41:14.520Z,5.35
2019-05-16T10:43:42.549Z,8.83
2019-05-16T10:46:09.691Z,6.97
2019-05-16T10:48:37.758Z,7.03
2019-05-16T10:51:07.556Z,7.90
2019-05-16T10:54:00.942Z,6.90
2019-05-16T10:56:04.115Z,6.08
2019-05-16T10:58:36.885Z,7.42
2019-05-16T11:01:22.102Z,7.87
2019-05-16T11:03:31.441Z,5.80
2019-05-16T11:06:05.440Z,6.42
2019-05-16T11:08:28.419Z,7.15
2019-05-16T11:10:57.093Z,7.22
2019-05-16T11:13:27.759Z,6.80
2019-05-16T11:15:54.091Z,5.80
2019-05-16T11:18:21.902Z,7.70
2019-05-16T11:20:49.695Z,6.97
2019-05-16T11:23:22.946Z,7.65
2019-05-16T11:25:47.182Z,8.48
2019-05-16T11:28:14.580Z,8.70
2019-05-16T11:30:42.271Z,5.80
2019-05-16T11:33:09.601Z,8.15
2019-05-16T11:35:38.119Z,7.20
2019-05-16T11:38:07.151Z,8.78
2019-05-16T11:40:34.749Z,9.03
2019-05-16T11:43:09.996Z,8.18
2019-05-16T11:45:31.631Z,7.05
2019-05-16T11:47:58.870Z,9.20
2019-05-16T11:50:28.056Z,6.35
2019-05-16T11:52:56.968Z,8.65
2019-05-16T11:55:32.392Z,8.00
2019-05-16T11:57:53.945Z,8.63
2019-05-16T12:00:22.354Z,12.50
2019-05-16T12:02:50.202Z,7.22
2019-05-16T12:05:17.734Z,7.78
2019-05-16T12:07:48.531Z,8.60
2019-05-16T12:10:16.433Z,6.28
2019-05-16T12:12:44.274Z,9.38
2019-05-16T12:15:16.705Z,6.12
2019-05-16T12:17:43.008Z,8.88
2019-05-16T12:20:10.182Z,5.22
2019-05-16T12:22:37.922Z,3.72
2019-05-16T12:25:08.103Z,5.17
2019-05-16T12:27:41.688Z,4.17
2019-05-16T12:30:12.902Z,4.60
2019-05-16T12:32:36.769Z,4.92
2019-05-16T12:35:06.526Z,4.45
2019-05-16T12:37:36.946Z,4.70
2019-05-16T12:40:03.567Z,3.58
2019-05-16T12:42:31.073Z,2.98
2019-05-16T12:44:58.904Z,2.95
2019-05-16T12:47:26.177Z,2.42
2019-05-16T12:49:56.646Z,3.05
2019-05-16T12:52:26.901Z,11.80
2019-05-16T12:54:53.549Z,7.47
2019-05-16T12:57:27.790Z,12.00
2019-05-16T12:59:52.609Z,11.63
2019-05-16T13:02:21.886Z,15.60
2019-05-16T13:04:49.460Z,5.53
2019-05-16T13:07:17.376Z,6.15
2019-05-16T13:09:46.423Z,3.20
2019-05-16T13:12:17.372Z,3.50
2019-05-16T13:14:45.149Z,3.05
2019-05-16T13:17:12.750Z,2.62
2019-05-16T13:19:44.097Z,2.62
2019-05-16T13:22:10.197Z,3.00
2019-05-16T13:24:38.583Z,2.92
2019-05-16T13:27:08.488Z,4.15
2019-05-16T13:29:37.075Z,3.17
2019-05-16T13:32:04.405Z,3.15
2019-05-16T13:34:32.102Z,8.00
2019-05-16T13:37:00.632Z,13.58
2019-05-16T13:39:28.067Z,23.67
2019-05-16T13:41:55.710Z,10.58
2019-05-16T13:44:23.571Z,4.75
2019-05-16T13:46:50.713Z,5.83
2019-05-16T13:49:18.516Z,4.50
2019-05-16T13:51:46.021Z,4.70
2019-05-16T13:54:13.432Z,4.08
2019-05-16T13:56:40.804Z,3.55
2019-05-16T13:59:08.191Z,6.53
2019-05-16T14:01:36.995Z,5.08
2019-05-16T14:04:08.985Z,4.53
2019-05-16T14:06:33.343Z,4.85
2019-05-16T14:09:00.893Z,3.60
2019-05-16T14:11:30.174Z,4.97
2019-05-16T14:13:57.918Z,3.87
2019-05-16T14:16:26.901Z,3.17
2019-05-16T14:18:54.621Z,4.47
2019-05-16T14:21:22.163Z,4.67
2019-05-16T14:23:53.413Z,6.95
2019-05-16T14:26:19.355Z,8.78
2019-05-16T14:28:49.076Z,4.85
2019-05-16T14:31:17.451Z,8.45
2019-05-16T14:33:47.246Z,5.35
2019-05-16T14:36:15.437Z,5.00
2019-05-16T14:38:46.614Z,3.27
2019-05-16T14:41:13.512Z,5.55
2019-05-16T14:43:41.074Z,4.37
2019-05-16T14:46:09.758Z,3.67
2019-05-16T14:48:38.364Z,4.42
2019-05-16T14:51:05.972Z,4.20
2019-05-16T14:53:34.115Z,8.80
2019-05-16T14:56:01.814Z,5.53
2019-05-16T14:58:30.869Z,5.30
2019-05-16T15:00:58.721Z,4.75
2019-05-16T15:03:27.283Z,4.00
2019-05-16T15:05:58.135Z,8.15
2019-05-16T15:08:24.131Z,5.83
2019-05-16T15:10:51.575Z,6.12
2019-05-16T15:13:18.981Z,4.33
2019-05-16T15:15:46.723Z,5.17
2019-05-16T15:18:17.414Z,4.50
2019-05-16T15:20:46.349Z,7.33
2019-05-16T15:23:17.268Z,5.50
2019-05-16T15:25:43.811Z,6.37
2019-05-16T15:28:11.317Z,5.65
2019-05-16T15:30:39.526Z,5.15
2019-05-16T15:33:08.454Z,5.12
2019-05-16T15:35:38.156Z,6.33
2019-05-16T15:38:07.771Z,5.78
2019-05-16T15:40:37.380Z,6.42
2019-05-16T15:43:04.418Z,5.95
2019-05-16T15:45:43.045Z,6.65
2019-05-16T15:48:08.682Z,6.12
2019-05-16T15:50:37.302Z,5.58
2019-05-16T15:53:07.943Z,6.15
2019-05-16T15:55:36.335Z,6.58
2019-05-16T15:58:07.374Z,5.92
2019-05-16T16:00:41.211Z,5.60
2019-05-16T16:03:09.165Z,8.18
2019-05-16T16:05:37.549Z,6.87
2019-05-16T16:08:06.920Z,6.15
2019-05-16T16:10:37.739Z,7.25
2019-05-16T16:13:06.732Z,10.15
2019-05-16T16:15:34.378Z,8.05
2019-05-16T16:18:01.860Z,6.97
2019-05-16T16:20:29.900Z,6.47
2019-05-16T16:22:57.466Z,7.42
2019-05-16T16:25:26.800Z,6.85
2019-05-16T16:27:54.484Z,7.28
2019-05-16T16:30:22.108Z,7.58
2019-05-16T16:32:49.731Z,8.93
2019-05-16T16:35:17.486Z,8.33
2019-05-16T16:37:46.897Z,7.25
2019-05-16T16:40:17.399Z,6.97
2019-05-16T16:42:47.272Z,11.20
2019-05-16T16:45:16.628Z,8.83
2019-05-16T16:47:43.502Z,9.68
2019-05-16T16:50:11.870Z,8.63
2019-05-16T16:52:40.824Z,9.25
2019-05-16T16:55:09.220Z,10.58
2019-05-16T16:57:38.605Z,11.63
2019-05-16T17:00:07.777Z,10.60
2019-05-16T17:02:37.389Z,9.58
2019-05-16T17:05:11.368Z,20.10
2019-05-16T17:07:37.532Z,19.80
2019-05-16T17:10:06.951Z,21.57
2019-05-16T17:12:40.238Z,43.20
2019-05-16T17:15:08.606Z,52.30
2019-05-16T17:17:37.430Z,46.53
2019-05-16T17:20:07.545Z,35.88
2019-05-16T17:22:37.138Z,32.63
2019-05-16T17:25:07.230Z,28.80
2019-05-16T17:27:37.338Z,35.05
2019-05-16T17:30:12.269Z,38.17
2019-05-16T17:32:40.280Z,55.50
2019-05-16T17:35:08.859Z,65.08
2019-05-16T17:37:37.445Z,71.37
2019-05-16T17:40:06.785Z,40.50
2019-05-16T17:42:37.350Z,42.13
2019-05-16T17:45:07.301Z,56.30
2019-05-16T17:47:37.290Z,55.30
2019-05-16T17:50:06.414Z,46.55
2019-05-16T17:52:36.941Z,47.73
2019-05-16T17:55:08.350Z,42.62
2019-05-16T17:57:37.229Z,45.12
2019-05-16T18:00:07.067Z,50.98
2019-05-16T18:02:37.293Z,42.75
2019-05-16T18:05:07.417Z,53.95
2019-05-16T18:07:36.820Z,57.20
2019-05-16T18:10:07.435Z,64.00
2019-05-16T18:12:37.450Z,49.67
2019-05-16T18:15:08.496Z,58.00
2019-05-16T18:17:36.255Z,49.05
2019-05-16T18:20:06.522Z,60.35
2019-05-16T18:22:36.583Z,53.00
2019-05-16T18:25:06.878Z,46.15
2019-05-16T18:27:37.385Z,43.02
2019-05-16T18:30:04.768Z,34.78
2019-05-16T18:32:32.885Z,39.85
2019-05-16T18:35:00.893Z,45.45
2019-05-16T18:37:28.388Z,53.35
2019-05-16T18:39:56.537Z,42.88
2019-05-16T18:42:27.399Z,42.38
2019-05-16T18:44:56.589Z,43.63
2019-05-16T18:47:26.927Z,33.38
2019-05-16T18:49:54.162Z,34.43
2019-05-16T18:52:23.420Z,41.92
2019-05-16T18:54:51.246Z,39.27
2019-05-16T18:57:18.803Z,46.90
2019-05-16T18:59:46.334Z,67.22
2019-05-16T19:02:15.275Z,71.45
2019-05-16T19:04:42.656Z,59.95
2019-05-16T19:07:11.777Z,48.63
2019-05-16T19:09:39.394Z,50.50
2019-05-16T19:12:07.140Z,45.55
2019-05-16T19:14:36.715Z,44.13
2019-05-16T19:17:17.355Z,43.17
2019-05-16T19:19:34.278Z,44.77
2019-05-16T19:22:02.036Z,94.72
2019-05-16T19:24:35.830Z,94.67
2019-05-16T19:27:03.774Z,68.65
2019-05-16T19:29:31.346Z,62.78
2019-05-16T19:31:59.232Z,53.20
2019-05-16T19:34:27.755Z,53.30
2019-05-16T19:36:57.487Z,52.27
2019-05-16T19:39:26.040Z,49.55
2019-05-16T19:41:57.243Z,43.60
2019-05-16T19:44:27.359Z,51.80
2019-05-16T19:46:57.176Z,52.40
2019-05-16T19:49:24.736Z,59.45
2019-05-16T19:51:52.828Z,59.00
2019-05-16T19:54:20.193Z,53.50
2019-05-16T19:56:48.716Z,59.30
2019-05-16T19:59:17.003Z,61.50
2019-05-16T20:01:46.366Z,59.95
2019-05-16T20:04:17.824Z,57.23
2019-05-16T20:06:50.818Z,61.85
2019-05-16T20:09:19.147Z,84.67
2019-05-16T20:11:46.765Z,94.97
2019-05-16T20:14:16.938Z,112.52
2019-05-16T20:16:47.029Z,106.78
2019-05-16T20:19:14.402Z,91.87
2019-05-16T20:21:41.887Z,67.82
2019-05-16T20:24:09.417Z,70.67
2019-05-16T20:26:37.610Z,72.03
2019-05-16T20:29:07.702Z,62.23
2019-05-16T20:31:36.851Z,54.75
2019-05-16T20:34:09.040Z,56.85
2019-05-16T20:36:36.988Z,64.65
2019-05-16T20:39:06.482Z,77.50
2019-05-16T20:41:36.863Z,90.12
2019-05-16T20:44:06.460Z,119.75
2019-05-16T20:46:33.841Z,117.22
2019-05-16T20:49:01.437Z,126.27
2019-05-16T20:51:29.224Z,107.22
2019-05-16T20:53:57.758Z,103.92
2019-05-16T20:56:26.542Z,89.77
2019-05-16T20:58:54.064Z,79.47
2019-05-16T21:01:23.217Z,79.47
2019-05-16T21:03:50.674Z,81.25
2019-05-16T21:06:18.570Z,82.27
2019-05-16T21:08:46.322Z,97.90
2019-05-16T21:11:17.167Z,76.95
2019-05-16T21:13:48.551Z,77.80
2019-05-16T21:16:16.297Z,67.35
2019-05-16T21:18:46.838Z,65.83
2019-05-16T21:21:16.662Z,75.83
2019-05-16T21:23:46.878Z,73.40
2019-05-16T21:26:14.030Z,58.87
2019-05-16T21:28:41.831Z,48.75
2019-05-16T21:31:09.611Z,45.55
2019-05-16T21:33:37.289Z,42.83
2019-05-16T21:36:07.021Z,51.48
2019-05-16T21:38:36.388Z,39.67
2019-05-16T21:41:03.622Z,45.50
2019-05-16T21:43:32.433Z,47.48
2019-05-16T21:45:59.883Z,43.02
2019-05-16T21:48:27.873Z,42.65
2019-05-16T21:50:56.995Z,38.23
2019-05-16T21:53:29.647Z,36.13
2019-05-16T21:55:56.272Z,43.73
2019-05-16T21:58:23.509Z,44.65
2019-05-16T22:00:56.742Z,42.13
2019-05-16T22:03:26.817Z,35.65
2019-05-16T22:05:57.359Z,37.20
2019-05-16T22:08:23.850Z,34.40
2019-05-16T22:10:51.038Z,32.90
2019-05-16T22:13:19.503Z,34.53
2019-05-16T22:15:47.245Z,44.03
2019-05-16T22:18:16.618Z,40.73
2019-05-16T22:20:44.367Z,41.33
2019-05-16T22:23:13.606Z,41.28
2019-05-16T22:25:41.212Z,40.95
2019-05-16T22:28:08.734Z,44.08
2019-05-16T22:30:36.702Z,41.55
2019-05-16T22:33:08.809Z,36.73
2019-05-16T22:35:34.117Z,36.17
2019-05-16T22:38:01.674Z,44.73
2019-05-16T22:40:33.174Z,43.45
2019-05-16T22:43:00.272Z,41.00
2019-05-16T22:45:28.325Z,40.95
2019-05-16T22:47:55.825Z,38.73
2019-05-16T22:50:23.203Z,38.45
2019-05-16T22:52:50.724Z,35.95
2019-05-16T22:55:18.523Z,40.90
2019-05-16T22:57:47.312Z,36.30
2019-05-16T23:00:22.628Z,43.48
2019-05-16T23:02:50.250Z,47.78
2019-05-16T23:05:17.847Z,38.88
2019-05-16T23:07:48.450Z,39.70
2019-05-16T23:10:16.658Z,40.90
2019-05-16T23:12:44.158Z,38.48
2019-05-16T23:15:12.235Z,43.17
2019-05-16T23:17:39.592Z,41.75
2019-05-16T23:20:07.418Z,47.23
2019-05-16T23:22:36.738Z,46.10
2019-05-16T23:25:06.570Z,44.80
2019-05-16T23:27:36.584Z,53.40
2019-05-16T23:30:04.493Z,43.83
2019-05-16T23:32:32.369Z,51.55
2019-05-16T23:34:59.797Z,52.20
2019-05-16T23:37:27.419Z,48.80
2019-05-16T23:39:56.851Z,45.58
2019-05-16T23:42:26.388Z,46.83
2019-05-16T23:44:53.690Z,41.28
2019-05-16T23:47:20.876Z,50.55
2019-05-16T23:49:48.350Z,43.85
2019-05-16T23:52:16.817Z,43.10
2019-05-16T23:54:44.743Z,44.93
2019-05-16T23:57:12.196Z,42.35
2019-05-16T23:59:40.618Z,43.42
